Time;durP1;ratioP1;P1;durP2;ratioP2;P2;SDS_P1;SDS_P2;PMS_P1;PMS_P2;Temp;Humidity;BMP_temperature;BMP_pressure;BME280_temperature;BME280_humidity;BME280_pressure;Samples;Min_cycle;Max_cycle;Signal;HPM_P1;HPM_P2
2022/12/10 00:01:42;;;;;;;104.50;37.60;;;;;;;;;;5002166;28;20932;-62
2022/12/10 00:04:08;;;;;;;97.57;36.97;;;;;;;;;;5012499;28;20292;-60
2022/12/10 00:06:35;;;;;;;88.47;36.33;;;;;;;;;;5012243;28;20284;-60
2022/12/10 00:09:01;;;;;;;90.60;35.00;;;;;;;;;;5012139;28;20046;-60
2022/12/10 00:11:27;;;;;;;102.27;36.73;;;;;;;;;;5012080;28;20281;-60
2022/12/10 00:13:53;;;;;;;94.03;37.80;;;;;;;;;;5007694;28;20295;-60
2022/12/10 00:16:21;;;;;;;97.57;36.53;;;;;;;;;;5003170;28;20845;-60
2022/12/10 00:18:47;;;;;;;93.77;35.23;;;;;;;;;;5001591;28;20961;-60
2022/12/10 00:21:15;;;;;;;89.60;36.23;;;;;;;;;;4995446;28;20289;-60
2022/12/10 00:23:42;;;;;;;98.43;37.40;;;;;;;;;;4992219;28;20352;-60
2022/12/10 00:26:08;;;;;;;97.13;36.27;;;;;;;;;;4992289;28;20285;-62
2022/12/10 00:28:34;;;;;;;106.97;38.67;;;;;;;;;;4991990;28;20784;-62
2022/12/10 00:31:04;;;;;;;103.13;39.20;;;;;;;;;;4991617;28;20293;-63
2022/12/10 00:33:30;;;;;;;109.30;37.70;;;;;;;;;;4991850;28;20293;-62
2022/12/10 00:35:56;;;;;;;90.33;35.63;;;;;;;;;;4991707;28;20349;-62
2022/12/10 00:38:22;;;;;;;103.47;38.43;;;;;;;;;;4992052;28;20376;-62
2022/12/10 00:40:48;;;;;;;105.00;38.70;;;;;;;;;;4991428;28;20301;-62
2022/12/10 00:43:14;;;;;;;90.60;35.63;;;;;;;;;;5007462;28;20384;-62
2022/12/10 00:45:40;;;;;;;102.37;36.00;;;;;;;;;;5008853;28;21054;-62
2022/12/10 00:48:06;;;;;;;95.17;36.13;;;;;;;;;;5011762;28;20335;-63
2022/12/10 00:50:32;;;;;;;99.23;35.73;;;;;;;;;;5010946;28;20277;-62
2022/12/10 00:52:58;;;;;;;100.27;37.57;;;;;;;;;;5011647;28;20042;-62
2022/12/10 00:55:24;;;;;;;104.50;37.90;;;;;;;;;;5010902;28;20129;-62
2022/12/10 00:57:50;;;;;;;103.57;38.07;;;;;;;;;;5005974;28;20042;-62
2022/12/10 01:00:16;;;;;;;105.13;38.37;;;;;;;;;;4991807;28;20296;-62
2022/12/10 01:02:42;;;;;;;112.07;41.37;;;;;;;;;;4991869;28;20715;-62
2022/12/10 01:05:08;;;;;;;104.67;38.43;;;;;;;;;;4991859;28;20376;-63
2022/12/10 01:07:34;;;;;;;96.60;38.07;;;;;;;;;;4991024;28;20049;-62
2022/12/10 01:10:00;;;;;;;104.20;38.93;;;;;;;;;;4991420;28;20296;-62
2022/12/10 01:12:26;;;;;;;102.23;38.93;;;;;;;;;;4991920;28;20054;-62
2022/12/10 01:14:52;;;;;;;102.40;36.00;;;;;;;;;;4991699;28;20046;-62
2022/12/10 01:17:18;;;;;;;104.37;38.57;;;;;;;;;;4990300;28;20497;-62
2022/12/10 01:19:44;;;;;;;104.73;40.27;;;;;;;;;;4991185;28;20316;-62
2022/12/10 01:22:10;;;;;;;102.50;37.23;;;;;;;;;;4991348;28;20282;-63
2022/12/10 01:24:36;;;;;;;101.90;39.13;;;;;;;;;;4991046;28;20505;-63
2022/12/10 01:27:03;;;;;;;106.97;39.57;;;;;;;;;;4991249;28;20321;-62
2022/12/10 01:29:29;;;;;;;101.47;37.00;;;;;;;;;;4991236;28;20296;-62
2022/12/10 01:31:57;;;;;;;101.90;38.20;;;;;;;;;;4991093;28;20290;-62
2022/12/10 01:34:23;;;;;;;99.77;37.40;;;;;;;;;;4991151;28;20281;-62
2022/12/10 01:36:51;;;;;;;109.47;40.73;;;;;;;;;;4990861;28;20286;-62
2022/12/10 01:39:18;;;;;;;103.10;38.87;;;;;;;;;;4990875;28;20316;-62
2022/12/10 01:41:54;;;;;;;103.60;39.37;;;;;;;;;;4989634;28;20294;-62
2022/12/10 01:44:20;;;;;;;113.07;38.87;;;;;;;;;;4990831;28;20289;-62
2022/12/10 01:46:47;;;;;;;117.03;42.93;;;;;;;;;;4990818;28;20286;-62
2022/12/10 01:49:18;;;;;;;110.27;42.87;;;;;;;;;;4990663;28;20054;-62
2022/12/10 01:51:45;;;;;;;106.37;39.93;;;;;;;;;;4990724;28;20285;-62
2022/12/10 01:54:15;;;;;;;116.80;42.07;;;;;;;;;;4990994;28;20278;-62
2022/12/10 01:56:43;;;;;;;108.40;39.97;;;;;;;;;;4989992;28;20359;-62
2022/12/10 01:59:10;;;;;;;122.30;41.37;;;;;;;;;;4990696;28;20317;-62
2022/12/10 02:01:45;;;;;;;125.03;44.10;;;;;;;;;;4990231;28;20699;-62
2022/12/10 02:04:11;;;;;;;117.93;43.00;;;;;;;;;;4990782;28;20309;-62
2022/12/10 02:07:09;;;;;;;108.13;40.27;;;;;;;;;;4989462;28;20783;-62
2022/12/10 02:09:41;;;;;;;112.50;40.77;;;;;;;;;;4978601;28;20085;-61
2022/12/10 02:12:12;;;;;;;113.27;39.47;;;;;;;;;;4990533;28;20633;-61
2022/12/10 02:14:56;;;;;;;109.30;40.73;;;;;;;;;;4988991;28;20294;-61
2022/12/10 02:17:38;;;;;;;118.30;41.70;;;;;;;;;;4990341;28;20830;-61
2022/12/10 02:20:04;;;;;;;113.27;39.17;;;;;;;;;;4990090;28;20313;-61
2022/12/10 02:22:32;;;;;;;109.00;40.77;;;;;;;;;;4988463;28;20333;-61
2022/12/10 02:24:59;;;;;;;111.83;43.47;;;;;;;;;;4989627;28;20376;-61
2022/12/10 02:27:31;;;;;;;106.83;41.67;;;;;;;;;;4990110;28;20285;-62
2022/12/10 02:29:58;;;;;;;119.07;44.37;;;;;;;;;;4989738;28;20286;-62
2022/12/10 02:32:26;;;;;;;116.90;44.20;;;;;;;;;;4989583;28;20336;-61
2022/12/10 02:34:54;;;;;;;118.00;42.53;;;;;;;;;;4989986;28;21708;-62
2022/12/10 02:37:24;;;;;;;114.63;40.60;;;;;;;;;;4989348;28;20312;-61
2022/12/10 02:39:51;;;;;;;118.73;41.77;;;;;;;;;;4989514;28;20313;-61
2022/12/10 02:42:18;;;;;;;112.47;41.67;;;;;;;;;;4990052;28;20290;-61
2022/12/10 02:44:45;;;;;;;114.33;43.27;;;;;;;;;;4989586;28;20806;-62
2022/12/10 02:47:12;;;;;;;120.30;44.33;;;;;;;;;;4989034;28;20289;-61
2022/12/10 02:49:39;;;;;;;121.03;42.00;;;;;;;;;;4990899;28;20380;-62
2022/12/10 02:52:09;;;;;;;124.53;42.43;;;;;;;;;;4990770;28;20290;-62
2022/12/10 02:54:37;;;;;;;112.50;41.50;;;;;;;;;;4988585;28;20293;-62
2022/12/10 02:57:08;;;;;;;110.20;40.93;;;;;;;;;;4988911;28;20297;-61
2022/12/10 02:59:43;;;;;;;111.43;40.17;;;;;;;;;;4990433;28;20313;-62
2022/12/10 03:02:12;;;;;;;118.73;40.40;;;;;;;;;;4990707;28;20783;-61
2022/12/10 03:04:58;;;;;;;112.47;42.23;;;;;;;;;;4990664;28;20799;-61
2022/12/10 03:07:47;;;;;;;123.87;41.70;;;;;;;;;;4978743;28;20294;-62
2022/12/10 03:10:26;;;;;;;127.37;44.27;;;;;;;;;;4987210;28;20297;-61
2022/12/10 03:12:58;;;;;;;121.03;40.87;;;;;;;;;;4990453;28;20811;-62
2022/12/10 03:15:25;;;;;;;121.77;43.07;;;;;;;;;;4990348;28;20285;-62
2022/12/10 03:17:52;;;;;;;120.83;42.27;;;;;;;;;;4990542;28;20281;-61
2022/12/10 03:20:18;;;;;;;111.33;39.70;;;;;;;;;;4989490;28;20815;-61
2022/12/10 03:22:45;;;;;;;110.60;41.13;;;;;;;;;;4989671;28;20293;-61
2022/12/10 03:25:14;;;;;;;105.77;39.60;;;;;;;;;;4989868;28;20282;-62
2022/12/10 03:27:41;;;;;;;111.60;39.03;;;;;;;;;;4989649;28;20318;-62
2022/12/10 03:30:08;;;;;;;118.70;42.43;;;;;;;;;;4989469;28;20278;-62
2022/12/10 03:32:34;;;;;;;119.07;43.17;;;;;;;;;;4989518;28;20701;-62
2022/12/10 03:35:01;;;;;;;108.70;41.13;;;;;;;;;;4989451;28;20742;-62
2022/12/10 03:37:27;;;;;;;117.57;41.37;;;;;;;;;;4989556;28;20320;-62
2022/12/10 03:39:54;;;;;;;107.57;40.97;;;;;;;;;;4989215;28;20316;-62
2022/12/10 03:42:20;;;;;;;113.83;43.03;;;;;;;;;;4988776;28;20298;-61
2022/12/10 03:44:49;;;;;;;114.83;39.20;;;;;;;;;;4989259;28;20292;-62
2022/12/10 03:47:15;;;;;;;111.40;40.50;;;;;;;;;;4988986;28;20320;-62
2022/12/10 03:49:42;;;;;;;114.10;43.57;;;;;;;;;;4989145;28;20309;-61
2022/12/10 03:52:08;;;;;;;116.40;41.23;;;;;;;;;;4988547;28;20042;-61
2022/12/10 03:54:34;;;;;;;116.93;40.50;;;;;;;;;;4989235;28;20281;-61
2022/12/10 03:57:00;;;;;;;117.53;38.77;;;;;;;;;;4988985;28;20289;-62
2022/12/10 03:59:27;;;;;;;122.30;41.67;;;;;;;;;;4989020;28;20818;-62
2022/12/10 04:01:53;;;;;;;108.33;41.57;;;;;;;;;;4987435;28;20300;-61
2022/12/10 04:04:19;;;;;;;102.93;39.90;;;;;;;;;;4988546;28;20285;-62
2022/12/10 04:06:45;;;;;;;105.30;40.33;;;;;;;;;;4988954;28;20292;-62
2022/12/10 04:09:12;;;;;;;113.30;38.07;;;;;;;;;;4987668;28;20625;-61
2022/12/10 04:11:38;;;;;;;109.90;40.13;;;;;;;;;;4987515;28;20348;-61
2022/12/10 04:16:49;;;;;;;107.13;37.43;;;;;;;;;;4988822;28;20289;-61
2022/12/10 04:19:17;;;;;;;113.67;41.37;;;;;;;;;;4990155;28;20808;-61
2022/12/10 04:27:21;;;;;;;108.73;40.50;;;;;;;;;;4992589;28;20281;-61
2022/12/10 04:29:47;;;;;;;114.00;38.87;;;;;;;;;;4991724;28;20377;-61
2022/12/10 04:32:13;;;;;;;112.73;41.70;;;;;;;;;;4992048;28;20289;-62
2022/12/10 04:34:39;;;;;;;108.60;38.77;;;;;;;;;;4992190;28;20694;-62
2022/12/10 04:37:06;;;;;;;111.43;41.07;;;;;;;;;;4992030;28;20663;-62
2022/12/10 04:39:32;;;;;;;111.87;41.37;;;;;;;;;;4991614;28;20305;-61
2022/12/10 04:41:59;;;;;;;108.80;38.77;;;;;;;;;;4992044;28;20286;-61
2022/12/10 04:44:25;;;;;;;111.70;40.80;;;;;;;;;;4991522;28;20298;-61
2022/12/10 04:46:51;;;;;;;108.40;40.27;;;;;;;;;;4991291;28;20290;-61
2022/12/10 04:49:17;;;;;;;102.57;36.30;;;;;;;;;;4991864;28;20289;-62
2022/12/10 04:51:43;;;;;;;106.20;39.20;;;;;;;;;;4991854;28;20373;-61
2022/12/10 04:54:09;;;;;;;109.90;38.43;;;;;;;;;;4992118;28;20278;-61
2022/12/10 04:56:36;;;;;;;109.93;39.77;;;;;;;;;;4991795;28;20297;-61
2022/12/10 04:59:03;;;;;;;107.23;37.33;;;;;;;;;;4991233;28;20320;-62
2022/12/10 05:01:29;;;;;;;108.97;36.47;;;;;;;;;;4990477;28;20348;-61
2022/12/10 05:03:58;;;;;;;102.83;38.23;;;;;;;;;;4991547;28;20875;-61
2022/12/10 05:06:24;;;;;;;106.03;38.27;;;;;;;;;;4991574;28;20364;-62
2022/12/10 05:08:50;;;;;;;109.67;38.60;;;;;;;;;;4991699;28;20281;-61
2022/12/10 05:11:18;;;;;;;104.60;39.83;;;;;;;;;;4991252;28;20647;-61
2022/12/10 05:13:44;;;;;;;119.40;42.80;;;;;;;;;;4991104;28;20093;-61
2022/12/10 05:16:11;;;;;;;114.73;38.77;;;;;;;;;;4990399;28;20289;-61
2022/12/10 05:18:37;;;;;;;109.80;38.60;;;;;;;;;;4991340;28;20318;-61
2022/12/10 05:21:05;;;;;;;108.97;38.57;;;;;;;;;;4991224;28;20294;-61
2022/12/10 05:23:31;;;;;;;104.57;39.87;;;;;;;;;;4991096;28;20381;-61
2022/12/10 05:26:03;;;;;;;115.07;37.37;;;;;;;;;;4990600;28;20281;-61
2022/12/10 05:28:30;;;;;;;105.23;38.20;;;;;;;;;;4989630;28;20379;-62
2022/12/10 05:30:57;;;;;;;112.60;40.10;;;;;;;;;;4990201;28;20285;-62
2022/12/10 05:33:23;;;;;;;111.00;37.53;;;;;;;;;;4990657;28;20297;-62
2022/12/10 05:35:56;;;;;;;109.77;37.93;;;;;;;;;;4989773;28;20297;-62
2022/12/10 05:38:23;;;;;;;105.97;37.67;;;;;;;;;;4991081;28;20863;-62
2022/12/10 05:40:49;;;;;;;105.97;38.43;;;;;;;;;;4990829;28;20157;-61
2022/12/10 05:43:15;;;;;;;109.60;40.33;;;;;;;;;;4990620;28;20293;-61
2022/12/10 05:45:41;;;;;;;110.07;40.90;;;;;;;;;;4990796;28;20671;-62
2022/12/10 05:48:07;;;;;;;109.23;41.47;;;;;;;;;;4990809;28;20621;-62
2022/12/10 05:50:33;;;;;;;111.37;40.03;;;;;;;;;;4990631;28;20285;-62
2022/12/10 05:52:59;;;;;;;119.53;41.47;;;;;;;;;;4989968;28;20077;-62
2022/12/10 05:55:26;;;;;;;108.77;41.67;;;;;;;;;;4990810;28;20278;-62
2022/12/10 05:57:53;;;;;;;115.13;41.77;;;;;;;;;;4990432;28;20412;-62
2022/12/10 06:00:20;;;;;;;118.37;40.80;;;;;;;;;;4990313;28;20450;-62
2022/12/10 06:02:46;;;;;;;108.93;41.27;;;;;;;;;;4990067;28;20293;-62
2022/12/10 06:05:12;;;;;;;104.17;39.67;;;;;;;;;;4990561;28;20424;-61
2022/12/10 06:07:38;;;;;;;123.47;42.77;;;;;;;;;;4990458;28;20065;-62
2022/12/10 06:10:04;;;;;;;126.53;43.43;;;;;;;;;;4989732;28;20278;-61
2022/12/10 06:12:30;;;;;;;110.53;39.60;;;;;;;;;;4989140;28;20401;-62
2022/12/10 06:14:56;;;;;;;117.10;43.27;;;;;;;;;;4989125;28;20293;-62
2022/12/10 06:17:22;;;;;;;110.60;40.23;;;;;;;;;;4990568;28;20282;-62
2022/12/10 06:19:48;;;;;;;122.80;41.13;;;;;;;;;;4988761;28;20306;-62
2022/12/10 06:22:14;;;;;;;125.47;45.13;;;;;;;;;;4990465;28;20282;-62
2022/12/10 06:24:40;;;;;;;113.87;40.33;;;;;;;;;;4988254;28;20405;-62
2022/12/10 06:27:07;;;;;;;112.73;41.20;;;;;;;;;;4990114;28;20285;-62
2022/12/10 06:29:33;;;;;;;119.70;42.37;;;;;;;;;;4989018;28;20309;-62
2022/12/10 06:31:59;;;;;;;107.37;39.90;;;;;;;;;;4989544;28;20289;-62
2022/12/10 06:34:25;;;;;;;116.93;40.33;;;;;;;;;;4989674;28;20660;-62
2022/12/10 06:36:51;;;;;;;117.83;41.87;;;;;;;;;;4987972;28;20286;-62
2022/12/10 06:39:17;;;;;;;108.27;40.93;;;;;;;;;;4989650;28;20310;-62
2022/12/10 06:41:45;;;;;;;107.20;41.73;;;;;;;;;;4989144;28;20285;-62
2022/12/10 06:44:11;;;;;;;100.20;37.30;;;;;;;;;;4988521;28;20357;-62
2022/12/10 06:46:37;;;;;;;117.60;41.97;;;;;;;;;;4987933;28;20363;-62
2022/12/10 06:49:03;;;;;;;110.13;43.37;;;;;;;;;;4987272;28;20890;-62
2022/12/10 06:51:29;;;;;;;125.27;42.77;;;;;;;;;;4987485;28;20293;-62
2022/12/10 06:53:56;;;;;;;119.43;44.47;;;;;;;;;;4987793;28;20320;-62
2022/12/10 06:56:22;;;;;;;116.20;42.57;;;;;;;;;;4987474;28;20681;-62
2022/12/10 06:58:48;;;;;;;111.10;40.80;;;;;;;;;;4987259;28;20309;-62
2022/12/10 07:01:17;;;;;;;124.47;44.33;;;;;;;;;;4997100;28;20289;-61
2022/12/10 07:03:43;;;;;;;119.83;43.80;;;;;;;;;;5007744;28;20285;-61
2022/12/10 07:06:10;;;;;;;119.07;42.57;;;;;;;;;;5008770;28;20285;-62
2022/12/10 07:08:37;;;;;;;109.57;40.33;;;;;;;;;;5007929;28;20340;-62
2022/12/10 07:11:13;;;;;;;119.83;42.60;;;;;;;;;;5008378;28;20288;-62
2022/12/10 07:13:39;;;;;;;120.17;42.83;;;;;;;;;;5008777;28;20289;-62
2022/12/10 07:16:14;;;;;;;121.03;44.23;;;;;;;;;;5008759;28;20288;-62
2022/12/10 07:18:41;;;;;;;117.27;42.00;;;;;;;;;;5008589;28;20304;-62
2022/12/10 07:21:17;;;;;;;103.30;39.93;;;;;;;;;;5008710;28;20332;-62
2022/12/10 07:23:43;;;;;;;128.87;44.10;;;;;;;;;;5008343;28;20324;-62
2022/12/10 07:26:09;;;;;;;138.47;44.73;;;;;;;;;;5008040;28;20277;-62
2022/12/10 07:28:35;;;;;;;145.57;48.00;;;;;;;;;;5008537;28;20343;-62
2022/12/10 07:31:05;;;;;;;135.10;46.73;;;;;;;;;;5008428;28;20296;-62
2022/12/10 07:33:31;;;;;;;142.87;45.10;;;;;;;;;;5008508;28;20356;-62
2022/12/10 07:35:57;;;;;;;142.93;48.40;;;;;;;;;;5007768;28;20419;-61
2022/12/10 07:38:24;;;;;;;133.40;46.73;;;;;;;;;;5007084;28;20363;-61
2022/12/10 07:40:50;;;;;;;143.40;48.23;;;;;;;;;;5008323;28;20291;-61
2022/12/10 07:43:16;;;;;;;132.40;48.77;;;;;;;;;;5008165;28;20690;-61
2022/12/10 07:45:42;;;;;;;132.27;45.63;;;;;;;;;;5007913;28;20639;-61
2022/12/10 07:48:08;;;;;;;130.40;45.50;;;;;;;;;;5008437;28;20295;-62
2022/12/10 07:50:34;;;;;;;136.80;43.97;;;;;;;;;;5008022;28;20299;-62
2022/12/10 07:53:00;;;;;;;145.77;48.40;;;;;;;;;;5008085;28;20655;-61
2022/12/10 07:55:26;;;;;;;129.97;45.10;;;;;;;;;;5011253;28;20306;-61
2022/12/10 07:57:52;;;;;;;138.07;48.73;;;;;;;;;;5012001;28;20320;-62
2022/12/10 08:00:18;;;;;;;130.20;45.57;;;;;;;;;;5010443;28;20702;-62
2022/12/10 08:02:44;;;;;;;130.13;45.43;;;;;;;;;;5011730;28;20285;-62
2022/12/10 08:05:11;;;;;;;139.67;47.10;;;;;;;;;;5011577;28;20287;-62
2022/12/10 08:07:37;;;;;;;131.27;49.73;;;;;;;;;;5011517;28;20046;-62
2022/12/10 08:10:03;;;;;;;130.33;47.27;;;;;;;;;;5011727;28;20291;-62
2022/12/10 08:12:30;;;;;;;143.00;51.57;;;;;;;;;;5011764;28;20041;-62
2022/12/10 08:14:56;;;;;;;133.20;46.57;;;;;;;;;;5011236;28;20316;-62
2022/12/10 08:17:22;;;;;;;130.10;46.27;;;;;;;;;;5011730;28;20307;-62
2022/12/10 08:19:49;;;;;;;149.90;50.33;;;;;;;;;;5011213;28;20806;-62
2022/12/10 08:22:15;;;;;;;136.03;45.20;;;;;;;;;;5011341;28;20280;-62
2022/12/10 08:24:41;;;;;;;144.77;49.33;;;;;;;;;;5009223;28;20293;-62
2022/12/10 08:27:07;;;;;;;137.30;49.90;;;;;;;;;;5011301;28;20052;-62
2022/12/10 08:29:33;;;;;;;142.03;51.47;;;;;;;;;;5011407;28;20508;-63
2022/12/10 08:31:59;;;;;;;143.10;50.43;;;;;;;;;;5010831;28;20092;-62
2022/12/10 08:34:25;;;;;;;145.13;48.70;;;;;;;;;;5011007;28;20404;-63
2022/12/10 08:36:51;;;;;;;143.47;49.30;;;;;;;;;;5010870;28;20049;-63
2022/12/10 08:39:17;;;;;;;138.27;50.53;;;;;;;;;;5010761;28;20316;-62
2022/12/10 08:41:44;;;;;;;142.07;49.97;;;;;;;;;;5011040;28;20049;-62
2022/12/10 08:44:10;;;;;;;141.30;47.10;;;;;;;;;;5011214;28;20289;-62
2022/12/10 08:46:36;;;;;;;138.20;49.00;;;;;;;;;;5009098;28;20293;-62
2022/12/10 08:49:03;;;;;;;134.97;47.60;;;;;;;;;;5010935;28;20366;-62
2022/12/10 08:51:29;;;;;;;142.07;48.73;;;;;;;;;;5010909;28;20293;-62
2022/12/10 08:53:55;;;;;;;137.90;48.47;;;;;;;;;;5010724;28;20284;-61
2022/12/10 08:56:21;;;;;;;145.20;48.13;;;;;;;;;;5010689;28;20355;-62
2022/12/10 08:58:47;;;;;;;144.40;48.73;;;;;;;;;;5010450;28;20331;-62
2022/12/10 09:01:15;;;;;;;147.53;47.93;;;;;;;;;;5010182;28;20287;-62
2022/12/10 09:03:41;;;;;;;147.33;46.73;;;;;;;;;;5010594;28;20296;-62
2022/12/10 09:06:08;;;;;;;154.20;48.57;;;;;;;;;;5009766;28;20367;-63
2022/12/10 09:08:35;;;;;;;144.47;49.50;;;;;;;;;;5009249;28;20046;-62
2022/12/10 09:11:07;;;;;;;139.70;47.70;;;;;;;;;;5010114;28;20308;-60
2022/12/10 09:13:33;;;;;;;153.30;49.73;;;;;;;;;;5010497;28;20316;-60
2022/12/10 09:15:59;;;;;;;151.10;50.87;;;;;;;;;;5010360;28;20289;-61
2022/12/10 09:18:25;;;;;;;150.47;49.53;;;;;;;;;;5010513;28;20703;-60
2022/12/10 09:20:51;;;;;;;170.17;51.57;;;;;;;;;;5009825;28;20285;-60
2022/12/10 09:23:17;;;;;;;182.53;57.03;;;;;;;;;;5009966;28;20332;-61
2022/12/10 09:25:43;;;;;;;169.27;54.63;;;;;;;;;;5010170;28;20319;-62
2022/12/10 09:28:09;;;;;;;160.30;50.10;;;;;;;;;;5010237;28;20363;-62
2022/12/10 09:30:35;;;;;;;167.80;51.37;;;;;;;;;;5009741;28;20285;-61
2022/12/10 09:33:01;;;;;;;165.83;53.03;;;;;;;;;;5008539;28;20288;-62
2022/12/10 09:35:27;;;;;;;162.80;51.83;;;;;;;;;;5010232;28;20288;-61
2022/12/10 09:37:53;;;;;;;167.83;52.57;;;;;;;;;;5009929;28;20324;-61
2022/12/10 09:40:24;;;;;;;159.13;52.47;;;;;;;;;;5009889;28;20341;-61
2022/12/10 09:42:53;;;;;;;150.53;46.10;;;;;;;;;;5009775;28;20636;-61
2022/12/10 09:45:38;;;;;;;158.67;50.20;;;;;;;;;;5009093;28;20296;-61
2022/12/10 09:48:16;;;;;;;150.43;49.70;;;;;;;;;;5009833;28;20296;-62
2022/12/10 09:51:05;;;;;;;165.63;49.73;;;;;;;;;;5009582;28;20355;-61
2022/12/10 09:53:32;;;;;;;152.33;51.80;;;;;;;;;;5004086;28;20295;-62
2022/12/10 09:55:58;;;;;;;170.93;51.23;;;;;;;;;;5009568;28;20574;-61
2022/12/10 09:58:26;;;;;;;166.43;50.10;;;;;;;;;;5008982;28;20888;-61
2022/12/10 10:00:58;;;;;;;163.57;50.00;;;;;;;;;;5009291;28;20273;-61
2022/12/10 10:03:25;;;;;;;179.50;52.10;;;;;;;;;;5008715;28;20339;-61
2022/12/10 10:05:53;;;;;;;217.30;54.87;;;;;;;;;;5009463;28;20285;-61
2022/12/10 10:08:25;;;;;;;191.50;57.97;;;;;;;;;;5009149;28;20285;-61
2022/12/10 10:10:51;;;;;;;167.53;53.00;;;;;;;;;;5009127;28;20285;-61
2022/12/10 10:13:31;;;;;;;152.63;48.93;;;;;;;;;;5009524;28;20295;-61
2022/12/10 10:16:01;;;;;;;145.20;48.70;;;;;;;;;;5009194;28;20293;-61
2022/12/10 10:18:36;;;;;;;147.87;49.50;;;;;;;;;;5009005;28;20797;-61
2022/12/10 10:21:04;;;;;;;140.73;44.50;;;;;;;;;;5009026;28;20388;-61
2022/12/10 10:23:30;;;;;;;148.30;46.13;;;;;;;;;;5009226;28;20285;-62
2022/12/10 10:25:57;;;;;;;145.97;45.73;;;;;;;;;;5009233;28;20295;-62
2022/12/10 10:28:23;;;;;;;141.17;47.13;;;;;;;;;;5008832;28;20347;-61
2022/12/10 10:30:50;;;;;;;131.73;42.90;;;;;;;;;;5008615;28;20403;-61
2022/12/10 10:33:17;;;;;;;132.60;41.67;;;;;;;;;;5009279;28;20291;-61
2022/12/10 10:35:57;;;;;;;135.70;44.23;;;;;;;;;;5008710;28;20280;-61
2022/12/10 10:38:26;;;;;;;146.87;43.43;;;;;;;;;;5007318;28;20634;-61
2022/12/10 10:40:54;;;;;;;178.50;47.60;;;;;;;;;;5009044;28;20487;-62
2022/12/10 10:43:20;;;;;;;202.57;56.07;;;;;;;;;;5008431;28;20659;-61
2022/12/10 10:45:54;;;;;;;167.27;50.20;;;;;;;;;;5007172;28;20303;-61
2022/12/10 10:48:22;;;;;;;214.87;58.20;;;;;;;;;;5008900;28;20042;-61
2022/12/10 10:50:50;;;;;;;207.23;55.77;;;;;;;;;;5008425;28;20280;-61
2022/12/10 10:53:34;;;;;;;211.77;56.60;;;;;;;;;;5008685;28;20775;-61
2022/12/10 10:56:07;;;;;;;215.63;59.77;;;;;;;;;;5008467;28;20792;-62
2022/12/10 10:58:33;;;;;;;231.27;56.93;;;;;;;;;;5008017;28;20351;-61
2022/12/10 11:00:59;;;;;;;236.03;59.83;;;;;;;;;;5007365;28;20296;-61
2022/12/10 11:03:26;;;;;;;259.00;64.47;;;;;;;;;;5008811;28;20293;-61
2022/12/10 11:05:52;;;;;;;249.73;63.90;;;;;;;;;;5008515;28;20292;-62
2022/12/10 11:08:20;;;;;;;250.97;62.37;;;;;;;;;;5008394;28;20783;-61
2022/12/10 11:11:01;;;;;;;247.70;64.53;;;;;;;;;;5008579;28;20339;-61
2022/12/10 11:13:28;;;;;;;249.97;62.50;;;;;;;;;;5008585;28;20292;-62
2022/12/10 11:16:08;;;;;;;240.57;63.43;;;;;;;;;;5008693;28;20320;-61
2022/12/10 11:18:36;;;;;;;265.13;65.33;;;;;;;;;;5008346;28;20392;-61
2022/12/10 11:21:16;;;;;;;252.13;66.47;;;;;;;;;;5007880;28;20293;-61
2022/12/10 11:24:08;;;;;;;253.93;61.33;;;;;;;;;;5008630;28;20313;-61
2022/12/10 11:26:40;;;;;;;229.47;63.50;;;;;;;;;;5006304;28;20356;-61
2022/12/10 11:29:14;;;;;;;236.33;61.77;;;;;;;;;;5009805;28;20278;-61
2022/12/10 11:31:51;;;;;;;259.47;65.13;;;;;;;;;;5012081;28;20289;-61
2022/12/10 11:34:36;;;;;;;234.97;64.10;;;;;;;;;;5012250;28;20305;-61
2022/12/10 11:37:05;;;;;;;249.80;63.07;;;;;;;;;;5012101;28;20293;-61
2022/12/10 11:39:54;;;;;;;255.50;64.17;;;;;;;;;;5012060;28;20330;-61
2022/12/10 11:42:26;;;;;;;248.20;63.70;;;;;;;;;;4983757;28;20285;-61
2022/12/10 11:45:07;;;;;;;262.33;64.23;;;;;;;;;;5012035;28;20300;-62
2022/12/10 11:47:39;;;;;;;289.23;72.67;;;;;;;;;;5012167;28;20350;-61
2022/12/10 11:50:19;;;;;;;266.93;65.87;;;;;;;;;;5012142;28;20288;-61
2022/12/10 11:52:53;;;;;;;258.80;62.07;;;;;;;;;;5012240;28;20284;-61
2022/12/10 11:55:28;;;;;;;250.97;68.90;;;;;;;;;;5011574;28;20866;-61
2022/12/10 11:58:10;;;;;;;238.33;64.13;;;;;;;;;;5011962;28;20284;-61
2022/12/10 12:01:05;;;;;;;253.67;60.63;;;;;;;;;;5011885;28;20314;-61
2022/12/10 12:03:50;;;;;;;247.23;61.77;;;;;;;;;;4975117;28;20664;-61
2022/12/10 12:06:35;;;;;;;223.43;62.90;;;;;;;;;;5011529;28;20284;-61
2022/12/10 12:09:17;;;;;;;235.53;64.27;;;;;;;;;;5012145;28;20766;-62
2022/12/10 12:11:43;;;;;;;226.40;62.13;;;;;;;;;;5012104;28;20312;-62
2022/12/10 12:14:14;;;;;;;233.00;65.90;;;;;;;;;;5011417;28;20293;-61
2022/12/10 12:16:40;;;;;;;245.87;62.77;;;;;;;;;;5001238;28;20205;-62
2022/12/10 12:19:23;;;;;;;240.73;64.60;;;;;;;;;;5001172;28;20317;-61
2022/12/10 12:21:50;;;;;;;223.87;61.70;;;;;;;;;;4999839;28;20296;-61
2022/12/10 12:24:22;;;;;;;217.80;63.13;;;;;;;;;;4992328;28;20286;-62
2022/12/10 12:27:08;;;;;;;206.50;58.33;;;;;;;;;;4992083;28;20356;-61
2022/12/10 12:29:36;;;;;;;209.77;58.50;;;;;;;;;;4987954;28;20660;-62
2022/12/10 12:32:12;;;;;;;197.13;56.20;;;;;;;;;;4991857;28;20664;-62
2022/12/10 12:34:47;;;;;;;207.37;58.20;;;;;;;;;;4992026;28;20293;-62
2022/12/10 12:37:16;;;;;;;212.90;58.23;;;;;;;;;;4992122;28;20285;-61
2022/12/10 12:39:46;;;;;;;210.40;59.70;;;;;;;;;;4991580;28;20305;-61
2022/12/10 12:42:12;;;;;;;202.90;58.57;;;;;;;;;;4991485;28;20285;-61
2022/12/10 12:44:45;;;;;;;206.97;57.13;;;;;;;;;;4991692;28;20289;-62
2022/12/10 12:47:17;;;;;;;217.67;58.93;;;;;;;;;;5001084;28;20285;-62
2022/12/10 12:49:43;;;;;;;216.00;57.90;;;;;;;;;;5004364;28;20584;-61
2022/12/10 12:52:24;;;;;;;205.30;56.70;;;;;;;;;;5001937;28;20699;-61
2022/12/10 12:54:50;;;;;;;180.27;56.27;;;;;;;;;;4998112;28;20820;-61
2022/12/10 12:57:26;;;;;;;207.93;57.20;;;;;;;;;;5002804;28;20301;-62
2022/12/10 13:00:02;;;;;;;183.63;56.47;;;;;;;;;;5001484;28;20867;-62
2022/12/10 13:02:37;;;;;;;199.03;57.67;;;;;;;;;;5002358;28;20305;-61
2022/12/10 13:05:04;;;;;;;191.37;53.20;;;;;;;;;;5000402;28;20294;-61
2022/12/10 13:07:31;;;;;;;181.70;52.70;;;;;;;;;;4998480;28;20380;-62
2022/12/10 13:10:06;;;;;;;173.13;52.13;;;;;;;;;;5008081;28;20281;-63
2022/12/10 13:12:46;;;;;;;172.27;53.37;;;;;;;;;;5010775;28;21183;-62
2022/12/10 13:15:32;;;;;;;188.53;54.33;;;;;;;;;;5010619;28;20292;-62
2022/12/10 13:18:10;;;;;;;184.00;55.47;;;;;;;;;;5009327;28;20304;-62
2022/12/10 13:20:48;;;;;;;197.30;56.60;;;;;;;;;;5006329;28;20359;-62
2022/12/10 13:23:26;;;;;;;191.67;54.60;;;;;;;;;;4999590;28;20285;-62
2022/12/10 13:25:55;;;;;;;158.90;49.00;;;;;;;;;;4999356;28;20298;-62
2022/12/10 13:28:27;;;;;;;181.83;51.93;;;;;;;;;;5000531;28;20316;-62
2022/12/10 13:31:12;;;;;;;176.80;55.10;;;;;;;;;;4999264;28;21163;-62
2022/12/10 13:34:01;;;;;;;183.90;53.23;;;;;;;;;;4999894;28;20359;-62
2022/12/10 13:36:32;;;;;;;180.60;51.93;;;;;;;;;;4981954;28;20363;-62
2022/12/10 13:39:05;;;;;;;160.37;48.43;;;;;;;;;;4999820;28;20306;-62
2022/12/10 13:44:25;;;;;;;173.67;49.80;;;;;;;;;;4997895;28;20309;-62
2022/12/10 13:46:51;;;;;;;174.07;53.77;;;;;;;;;;4997426;28;20294;-62
2022/12/10 13:49:23;;;;;;;158.57;49.63;;;;;;;;;;4998650;28;20286;-62
2022/12/10 13:52:03;;;;;;;168.47;50.40;;;;;;;;;;4997662;28;20708;-62
2022/12/10 13:54:39;;;;;;;167.07;47.13;;;;;;;;;;4998910;28;20847;-62
2022/12/10 13:57:11;;;;;;;167.97;47.73;;;;;;;;;;5004483;28;20293;-62
2022/12/10 13:59:37;;;;;;;166.17;50.87;;;;;;;;;;5009649;28;20385;-62
2022/12/10 14:02:12;;;;;;;164.43;48.50;;;;;;;;;;5009802;28;20305;-62
2022/12/10 14:04:47;;;;;;;205.60;51.00;;;;;;;;;;5009477;28;20351;-62
2022/12/10 14:07:15;;;;;;;172.07;50.87;;;;;;;;;;5010034;28;21131;-62
2022/12/10 14:09:51;;;;;;;165.10;46.20;;;;;;;;;;5009913;28;20288;-62
2022/12/10 14:12:19;;;;;;;160.83;47.87;;;;;;;;;;5009698;28;20312;-62
2022/12/10 14:14:47;;;;;;;173.63;50.47;;;;;;;;;;5009546;28;20297;-62
2022/12/10 14:17:16;;;;;;;175.03;47.70;;;;;;;;;;5009262;28;20312;-62
2022/12/10 14:19:44;;;;;;;172.43;48.37;;;;;;;;;;5007739;28;20407;-62
2022/12/10 14:22:18;;;;;;;164.87;45.70;;;;;;;;;;5009639;28;20293;-62
2022/12/10 14:24:45;;;;;;;164.00;43.33;;;;;;;;;;5009518;28;20285;-62
2022/12/10 14:27:13;;;;;;;176.90;47.17;;;;;;;;;;5008475;28;20302;-62
2022/12/10 14:29:43;;;;;;;185.13;46.50;;;;;;;;;;5008528;28;20830;-62